sensor_id;sensor_type;location;lat;lon;timestamp;pressure;altitude;pressure_sealevel;temperature;humidity
26112;BME280;13829;48.990;8.346;2022-08-01T00:00:38;100465.97;;;21.63;60.08
26112;BME280;13829;48.990;8.346;2022-08-01T00:03:05;100468.63;;;21.65;60.98
26112;BME280;13829;48.990;8.346;2022-08-01T00:05:32;100463.00;;;21.71;61.06
26112;BME280;13829;48.990;8.346;2022-08-01T00:07:59;100465.72;;;21.70;60.70
26112;BME280;13829;48.990;8.346;2022-08-01T00:10:26;100473.31;;;21.58;60.82
26112;BME280;13829;48.990;8.346;2022-08-01T00:12:53;100468.31;;;21.49;61.62
26112;BME280;13829;48.990;8.346;2022-08-01T00:15:20;100469.31;;;21.46;61.66
26112;BME280;13829;48.990;8.346;2022-08-01T00:17:49;100465.75;;;21.46;61.35
26112;BME280;13829;48.990;8.346;2022-08-01T00:20:16;100472.84;;;21.47;61.48
26112;BME280;13829;48.990;8.346;2022-08-01T00:22:43;100472.03;;;21.45;61.63
26112;BME280;13829;48.990;8.346;2022-08-01T00:25:10;100472.91;;;21.45;62.81
26112;BME280;13829;48.990;8.346;2022-08-01T00:27:37;100474.81;;;21.42;63.05
26112;BME280;13829;48.990;8.346;2022-08-01T00:30:05;100469.47;;;21.42;63.12
26112;BME280;13829;48.990;8.346;2022-08-01T00:32:33;100479.63;;;21.33;62.88
26112;BME280;13829;48.990;8.346;2022-08-01T00:35:01;100479.78;;;21.29;63.37
26112;BME280;13829;48.990;8.346;2022-08-01T00:37:28;100486.06;;;21.28;63.66
26112;BME280;13829;48.990;8.346;2022-08-01T00:39:55;100480.78;;;21.26;64.06
26112;BME280;13829;48.990;8.346;2022-08-01T00:42:22;100479.03;;;21.25;63.98
26112;BME280;13829;48.990;8.346;2022-08-01T00:44:49;100482.47;;;21.29;63.05
26112;BME280;13829;48.990;8.346;2022-08-01T00:47:16;100482.75;;;21.21;63.56
26112;BME280;13829;48.990;8.346;2022-08-01T00:49:43;100481.84;;;21.22;64.48
26112;BME280;13829;48.990;8.346;2022-08-01T00:52:12;100477.56;;;21.16;64.67
26112;BME280;13829;48.990;8.346;2022-08-01T00:54:39;100486.72;;;21.11;64.31
26112;BME280;13829;48.990;8.346;2022-08-01T00:57:07;100483.06;;;21.13;64.50
26112;BME280;13829;48.990;8.346;2022-08-01T00:59:34;100482.00;;;21.17;64.46
26112;BME280;13829;48.990;8.346;2022-08-01T01:02:02;100482.88;;;21.18;64.49
26112;BME280;13829;48.990;8.346;2022-08-01T01:04:28;100482.19;;;21.13;64.33
26112;BME280;13829;48.990;8.346;2022-08-01T01:07:05;100476.09;;;21.09;64.03
26112;BME280;13829;48.990;8.346;2022-08-01T01:09:44;100485.09;;;21.07;64.26
26112;BME280;13829;48.990;8.346;2022-08-01T01:12:28;100487.78;;;21.05;64.89
26112;BME280;13829;48.990;8.346;2022-08-01T01:15:06;100480.59;;;21.07;65.34
26112;BME280;13829;48.990;8.346;2022-08-01T01:17:40;100491.06;;;21.13;65.17
26112;BME280;13829;48.990;8.346;2022-08-01T01:20:12;100490.44;;;21.07;65.24
26112;BME280;13829;48.990;8.346;2022-08-01T01:22:53;100491.47;;;21.02;66.10
26112;BME280;13829;48.990;8.346;2022-08-01T01:26:03;100485.19;;;21.04;66.03
26112;BME280;13829;48.990;8.346;2022-08-01T01:31:16;100488.00;;;21.00;65.86
26112;BME280;13829;48.990;8.346;2022-08-01T01:33:45;100491.59;;;20.99;65.35
26112;BME280;13829;48.990;8.346;2022-08-01T01:36:14;100487.16;;;20.98;65.97
26112;BME280;13829;48.990;8.346;2022-08-01T01:38:45;100487.34;;;21.17;65.45
26112;BME280;13829;48.990;8.346;2022-08-01T01:41:16;100494.97;;;21.05;65.59
26112;BME280;13829;48.990;8.346;2022-08-01T01:43:45;100491.75;;;20.95;65.91
26112;BME280;13829;48.990;8.346;2022-08-01T01:46:19;100490.06;;;20.92;66.06
26112;BME280;13829;48.990;8.346;2022-08-01T01:48:49;100492.66;;;20.94;66.42
26112;BME280;13829;48.990;8.346;2022-08-01T01:51:18;100488.84;;;21.01;66.51
26112;BME280;13829;48.990;8.346;2022-08-01T01:53:49;100488.06;;;20.99;66.25
26112;BME280;13829;48.990;8.346;2022-08-01T01:56:19;100500.88;;;20.89;66.39
26112;BME280;13829;48.990;8.346;2022-08-01T02:01:26;100501.97;;;20.83;67.60
26112;BME280;13829;48.990;8.346;2022-08-01T02:03:56;100495.47;;;20.91;69.47
26112;BME280;13829;48.990;8.346;2022-08-01T02:06:25;100502.16;;;20.79;69.57
26112;BME280;13829;48.990;8.346;2022-08-01T02:08:54;100499.75;;;20.69;69.85
26112;BME280;13829;48.990;8.346;2022-08-01T02:11:22;100506.06;;;20.67;70.48
26112;BME280;13829;48.990;8.346;2022-08-01T02:13:59;100487.97;;;20.50;71.59
26112;BME280;13829;48.990;8.346;2022-08-01T02:16:31;100498.03;;;20.43;72.67
26112;BME280;13829;48.990;8.346;2022-08-01T02:19:00;100494.78;;;20.33;73.94
26112;BME280;13829;48.990;8.346;2022-08-01T02:21:32;100494.34;;;20.19;74.91
26112;BME280;13829;48.990;8.346;2022-08-01T02:24:09;100500.06;;;20.08;76.55
26112;BME280;13829;48.990;8.346;2022-08-01T02:26:42;100500.31;;;20.00;78.38
26112;BME280;13829;48.990;8.346;2022-08-01T02:29:19;100495.06;;;19.97;79.48
26112;BME280;13829;48.990;8.346;2022-08-01T02:31:53;100489.06;;;19.91;80.74
26112;BME280;13829;48.990;8.346;2022-08-01T02:34:23;100495.38;;;19.88;81.56
26112;BME280;13829;48.990;8.346;2022-08-01T02:36:54;100492.72;;;19.88;82.30
26112;BME280;13829;48.990;8.346;2022-08-01T02:39:25;100493.75;;;19.84;83.29
26112;BME280;13829;48.990;8.346;2022-08-01T02:41:59;100488.56;;;19.78;84.30
26112;BME280;13829;48.990;8.346;2022-08-01T02:44:33;100490.50;;;19.72;85.28
26112;BME280;13829;48.990;8.346;2022-08-01T02:47:03;100495.06;;;19.69;86.06
26112;BME280;13829;48.990;8.346;2022-08-01T02:49:35;100496.09;;;19.65;86.13
26112;BME280;13829;48.990;8.346;2022-08-01T02:52:07;100490.69;;;19.66;85.29
26112;BME280;13829;48.990;8.346;2022-08-01T02:54:37;100492.63;;;19.61;85.38
26112;BME280;13829;48.990;8.346;2022-08-01T02:57:07;100505.13;;;19.59;85.75
26112;BME280;13829;48.990;8.346;2022-08-01T02:59:37;100500.69;;;19.60;85.49
26112;BME280;13829;48.990;8.346;2022-08-01T03:02:08;100501.66;;;19.57;85.49
26112;BME280;13829;48.990;8.346;2022-08-01T03:04:39;100499.91;;;19.56;86.08
26112;BME280;13829;48.990;8.346;2022-08-01T03:07:09;100504.41;;;19.54;86.53
26112;BME280;13829;48.990;8.346;2022-08-01T03:09:43;100502.75;;;19.50;87.10
26112;BME280;13829;48.990;8.346;2022-08-01T03:12:16;100503.69;;;19.49;87.39
26112;BME280;13829;48.990;8.346;2022-08-01T03:14:47;100500.09;;;19.50;86.56
26112;BME280;13829;48.990;8.346;2022-08-01T03:17:18;100501.97;;;19.46;86.42
26112;BME280;13829;48.990;8.346;2022-08-01T03:19:49;100496.59;;;19.48;86.07
26112;BME280;13829;48.990;8.346;2022-08-01T03:22:21;100489.47;;;19.48;85.83
26112;BME280;13829;48.990;8.346;2022-08-01T03:24:52;100492.81;;;19.55;84.87
26112;BME280;13829;48.990;8.346;2022-08-01T03:27:22;100499.06;;;19.54;85.40
26112;BME280;13829;48.990;8.346;2022-08-01T03:29:52;100494.66;;;19.53;85.89
26112;BME280;13829;48.990;8.346;2022-08-01T03:32:24;100501.84;;;19.51;86.27
26112;BME280;13829;48.990;8.346;2022-08-01T03:34:53;100501.00;;;19.49;86.45
26112;BME280;13829;48.990;8.346;2022-08-01T03:37:25;100507.19;;;19.51;85.86
26112;BME280;13829;48.990;8.346;2022-08-01T03:39:58;100500.91;;;19.52;86.56
26112;BME280;13829;48.990;8.346;2022-08-01T03:42:33;100500.81;;;19.55;86.39
26112;BME280;13829;48.990;8.346;2022-08-01T03:45:07;100500.53;;;19.64;86.53
26112;BME280;13829;48.990;8.346;2022-08-01T03:47:41;100508.47;;;19.67;87.10
26112;BME280;13829;48.990;8.346;2022-08-01T03:50:11;100499.44;;;19.71;87.48
26112;BME280;13829;48.990;8.346;2022-08-01T03:52:42;100504.75;;;19.71;87.73
26112;BME280;13829;48.990;8.346;2022-08-01T03:55:12;100497.69;;;19.70;87.55
26112;BME280;13829;48.990;8.346;2022-08-01T03:57:43;100503.94;;;19.69;87.98
26112;BME280;13829;48.990;8.346;2022-08-01T04:00:11;100501.38;;;19.66;87.67
26112;BME280;13829;48.990;8.346;2022-08-01T04:02:41;100493.41;;;19.65;86.77
26112;BME280;13829;48.990;8.346;2022-08-01T04:05:09;100496.03;;;19.66;86.85
26112;BME280;13829;48.990;8.346;2022-08-01T04:07:37;100496.03;;;19.66;86.37
26112;BME280;13829;48.990;8.346;2022-08-01T04:10:05;100498.75;;;19.65;87.22
26112;BME280;13829;48.990;8.346;2022-08-01T04:12:34;100500.53;;;19.64;87.70
26112;BME280;13829;48.990;8.346;2022-08-01T04:15:01;100504.13;;;19.63;87.89
26112;BME280;13829;48.990;8.346;2022-08-01T04:17:28;100497.00;;;19.64;88.00
26112;BME280;13829;48.990;8.346;2022-08-01T04:19:57;100501.19;;;19.72;85.42
26112;BME280;13829;48.990;8.346;2022-08-01T04:22:24;100501.19;;;19.72;85.33
26112;BME280;13829;48.990;8.346;2022-08-01T04:24:55;100508.47;;;19.67;85.57
26112;BME280;13829;48.990;8.346;2022-08-01T04:27:29;100509.38;;;19.66;86.08
26112;BME280;13829;48.990;8.346;2022-08-01T04:30:00;100515.53;;;19.68;86.66
26112;BME280;13829;48.990;8.346;2022-08-01T04:32:32;100509.13;;;19.74;86.27
26112;BME280;13829;48.990;8.346;2022-08-01T04:35:06;100504.34;;;19.85;86.28
26112;BME280;13829;48.990;8.346;2022-08-01T04:37:35;100510.09;;;20.01;85.12
26112;BME280;13829;48.990;8.346;2022-08-01T04:40:06;100506.19;;;20.12;83.11
26112;BME280;13829;48.990;8.346;2022-08-01T04:42:33;100511.34;;;20.16;83.44
26112;BME280;13829;48.990;8.346;2022-08-01T04:45:02;100515.69;;;20.20;83.90
26112;BME280;13829;48.990;8.346;2022-08-01T04:47:30;100517.47;;;20.20;84.78
26112;BME280;13829;48.990;8.346;2022-08-01T04:49:58;100514.72;;;20.23;84.65
26112;BME280;13829;48.990;8.346;2022-08-01T04:52:35;100524.44;;;20.24;85.19
26112;BME280;13829;48.990;8.346;2022-08-01T04:55:04;100524.38;;;20.27;85.70
26112;BME280;13829;48.990;8.346;2022-08-01T04:57:34;100515.31;;;20.31;85.98
26112;BME280;13829;48.990;8.346;2022-08-01T05:00:05;100517.84;;;20.36;86.15
26112;BME280;13829;48.990;8.346;2022-08-01T05:02:32;100516.53;;;20.48;83.06
26112;BME280;13829;48.990;8.346;2022-08-01T05:04:59;100513.78;;;20.51;83.03
26112;BME280;13829;48.990;8.346;2022-08-01T05:07:26;100522.38;;;20.59;83.24
26112;BME280;13829;48.990;8.346;2022-08-01T05:09:55;100517.66;;;20.67;83.14
26112;BME280;13829;48.990;8.346;2022-08-01T05:12:22;100513.84;;;20.75;83.60
26112;BME280;13829;48.990;8.346;2022-08-01T05:14:49;100516.38;;;20.79;83.98
26112;BME280;13829;48.990;8.346;2022-08-01T05:17:16;100518.75;;;20.87;84.13
26112;BME280;13829;48.990;8.346;2022-08-01T05:19:43;100521.91;;;20.98;83.86
26112;BME280;13829;48.990;8.346;2022-08-01T05:22:10;100517.97;;;21.09;83.61
26112;BME280;13829;48.990;8.346;2022-08-01T05:24:39;100517.69;;;21.16;83.14
26112;BME280;13829;48.990;8.346;2022-08-01T05:27:09;100520.03;;;21.26;79.41
26112;BME280;13829;48.990;8.346;2022-08-01T05:29:36;100518.91;;;21.31;78.56
26112;BME280;13829;48.990;8.346;2022-08-01T05:32:04;100513.16;;;21.42;77.97
26112;BME280;13829;48.990;8.346;2022-08-01T05:34:31;100526.97;;;21.55;76.87
26112;BME280;13829;48.990;8.346;2022-08-01T05:36:58;100525.97;;;21.58;76.02
26112;BME280;13829;48.990;8.346;2022-08-01T05:39:25;100521.16;;;21.67;75.81
26112;BME280;13829;48.990;8.346;2022-08-01T05:41:52;100516.19;;;21.80;74.93
26112;BME280;13829;48.990;8.346;2022-08-01T05:44:21;100514.78;;;21.92;74.14
26112;BME280;13829;48.990;8.346;2022-08-01T05:46:48;100511.19;;;21.93;73.71
26112;BME280;13829;48.990;8.346;2022-08-01T05:49:15;100515.47;;;21.97;74.02
26112;BME280;13829;48.990;8.346;2022-08-01T05:51:41;100512.97;;;22.15;73.96
26112;BME280;13829;48.990;8.346;2022-08-01T05:54:08;100521.63;;;22.22;73.11
26112;BME280;13829;48.990;8.346;2022-08-01T05:56:35;100524.31;;;22.44;72.60
26112;BME280;13829;48.990;8.346;2022-08-01T05:59:03;100525.38;;;22.81;72.16
26112;BME280;13829;48.990;8.346;2022-08-01T06:01:31;100523.91;;;22.94;70.77
26112;BME280;13829;48.990;8.346;2022-08-01T06:03:58;100519.03;;;23.04;69.91
26112;BME280;13829;48.990;8.346;2022-08-01T06:06:26;100523.22;;;23.10;70.03
26112;BME280;13829;48.990;8.346;2022-08-01T06:08:52;100521.88;;;23.20;69.11
26112;BME280;13829;48.990;8.346;2022-08-01T06:11:20;100520.59;;;23.29;69.72
26112;BME280;13829;48.990;8.346;2022-08-01T06:13:47;100525.09;;;23.48;68.53
26112;BME280;13829;48.990;8.346;2022-08-01T06:16:14;100524.09;;;23.50;68.37
26112;BME280;13829;48.990;8.346;2022-08-01T06:18:42;100522.06;;;23.55;68.42
26112;BME280;13829;48.990;8.346;2022-08-01T06:21:09;100525.19;;;23.65;68.02
26112;BME280;13829;48.990;8.346;2022-08-01T06:23:36;100533.88;;;23.89;67.76
26112;BME280;13829;48.990;8.346;2022-08-01T06:26:04;100528.56;;;24.07;66.29
26112;BME280;13829;48.990;8.346;2022-08-01T06:28:30;100529.69;;;24.20;65.47
26112;BME280;13829;48.990;8.346;2022-08-01T06:30:57;100528.34;;;24.29;65.61
26112;BME280;13829;48.990;8.346;2022-08-01T06:33:26;100529.84;;;24.52;64.75
26112;BME280;13829;48.990;8.346;2022-08-01T06:35:54;100525.63;;;24.66;64.31
26112;BME280;13829;48.990;8.346;2022-08-01T06:38:22;100528.31;;;24.83;63.09
26112;BME280;13829;48.990;8.346;2022-08-01T06:40:50;100531.78;;;25.19;62.58
26112;BME280;13829;48.990;8.346;2022-08-01T06:43:17;100528.13;;;25.53;61.85
26112;BME280;13829;48.990;8.346;2022-08-01T06:45:45;100526.75;;;25.62;60.09
26112;BME280;13829;48.990;8.346;2022-08-01T06:48:11;100537.16;;;26.00;59.77
26112;BME280;13829;48.990;8.346;2022-08-01T06:50:39;100536.47;;;26.29;57.19
26112;BME280;13829;48.990;8.346;2022-08-01T06:53:07;100544.44;;;26.46;56.72
26112;BME280;13829;48.990;8.346;2022-08-01T06:55:35;100538.13;;;26.62;55.80
26112;BME280;13829;48.990;8.346;2022-08-01T06:58:02;100543.63;;;26.91;55.01
26112;BME280;13829;48.990;8.346;2022-08-01T07:00:28;100530.44;;;27.44;53.42
26112;BME280;13829;48.990;8.346;2022-08-01T07:02:58;100536.28;;;28.34;49.95
26112;BME280;13829;48.990;8.346;2022-08-01T07:05:26;100540.50;;;29.04;48.16
26112;BME280;13829;48.990;8.346;2022-08-01T07:07:53;100542.38;;;28.91;48.23
26112;BME280;13829;48.990;8.346;2022-08-01T07:10:22;100538.47;;;28.42;50.23
26112;BME280;13829;48.990;8.346;2022-08-01T07:12:49;100544.03;;;28.26;52.03
26112;BME280;13829;48.990;8.346;2022-08-01T07:15:16;100549.38;;;27.86;52.47
26112;BME280;13829;48.990;8.346;2022-08-01T07:17:46;100548.03;;;27.64;52.45
26112;BME280;13829;48.990;8.346;2022-08-01T07:20:13;100542.09;;;27.44;53.32
26112;BME280;13829;48.990;8.346;2022-08-01T07:22:40;100541.31;;;27.57;53.69
26112;BME280;13829;48.990;8.346;2022-08-01T07:25:08;100539.94;;;27.78;52.43
26112;BME280;13829;48.990;8.346;2022-08-01T07:27:37;100536.59;;;28.02;52.97
26112;BME280;13829;48.990;8.346;2022-08-01T07:30:06;100538.25;;;27.90;52.58
26112;BME280;13829;48.990;8.346;2022-08-01T07:32:33;100538.13;;;27.92;52.96
26112;BME280;13829;48.990;8.346;2022-08-01T07:35:00;100536.16;;;27.66;52.21
26112;BME280;13829;48.990;8.346;2022-08-01T07:37:27;100532.41;;;27.69;53.06
26112;BME280;13829;48.990;8.346;2022-08-01T07:39:54;100536.34;;;27.78;52.40
26112;BME280;13829;48.990;8.346;2022-08-01T07:42:21;100527.22;;;28.08;50.65
26112;BME280;13829;48.990;8.346;2022-08-01T07:44:50;100521.84;;;28.61;50.89
26112;BME280;13829;48.990;8.346;2022-08-01T07:47:24;100522.59;;;30.63;47.21
26112;BME280;13829;48.990;8.346;2022-08-01T07:49:51;100526.97;;;32.56;40.99
26112;BME280;13829;48.990;8.346;2022-08-01T07:52:19;100520.59;;;34.10;38.65
26112;BME280;13829;48.990;8.346;2022-08-01T07:54:46;100529.72;;;35.07;34.57
26112;BME280;13829;48.990;8.346;2022-08-01T07:57:13;100526.63;;;35.20;34.38
26112;BME280;13829;48.990;8.346;2022-08-01T07:59:40;100527.28;;;35.32;32.88
26112;BME280;13829;48.990;8.346;2022-08-01T08:02:08;100533.75;;;35.96;32.98
26112;BME280;13829;48.990;8.346;2022-08-01T08:04:35;100528.59;;;36.11;34.29
26112;BME280;13829;48.990;8.346;2022-08-01T08:07:02;100529.28;;;35.39;32.49
26112;BME280;13829;48.990;8.346;2022-08-01T08:09:29;100527.38;;;34.35;34.51
26112;BME280;13829;48.990;8.346;2022-08-01T08:11:56;100526.72;;;33.92;36.16
26112;BME280;13829;48.990;8.346;2022-08-01T08:14:24;100511.81;;;34.26;35.13
26112;BME280;13829;48.990;8.346;2022-08-01T08:16:51;100523.84;;;35.02;33.89
26112;BME280;13829;48.990;8.346;2022-08-01T08:19:19;100520.06;;;35.68;32.36
26112;BME280;13829;48.990;8.346;2022-08-01T08:21:46;100520.00;;;35.78;31.55
26112;BME280;13829;48.990;8.346;2022-08-01T08:24:13;100523.88;;;35.85;31.46
26112;BME280;13829;48.990;8.346;2022-08-01T08:26:46;100522.94;;;35.01;33.13
26112;BME280;13829;48.990;8.346;2022-08-01T08:29:14;100520.16;;;34.05;33.89
26112;BME280;13829;48.990;8.346;2022-08-01T08:31:41;100520.31;;;33.53;35.15
26112;BME280;13829;48.990;8.346;2022-08-01T08:34:08;100525.34;;;33.26;37.24
26112;BME280;13829;48.990;8.346;2022-08-01T08:36:37;100517.31;;;33.25;37.08
26112;BME280;13829;48.990;8.346;2022-08-01T08:39:04;100517.09;;;33.28;36.60
26112;BME280;13829;48.990;8.346;2022-08-01T08:41:33;100511.09;;;32.82;37.83
26112;BME280;13829;48.990;8.346;2022-08-01T08:44:01;100515.00;;;33.20;36.96
26112;BME280;13829;48.990;8.346;2022-08-01T08:46:28;100508.00;;;33.58;37.76
26112;BME280;13829;48.990;8.346;2022-08-01T08:48:59;100511.72;;;33.57;36.70
26112;BME280;13829;48.990;8.346;2022-08-01T08:51:27;100505.72;;;33.63;35.57
26112;BME280;13829;48.990;8.346;2022-08-01T08:53:58;100507.75;;;33.81;36.47
26112;BME280;13829;48.990;8.346;2022-08-01T08:56:27;100522.31;;;33.41;36.24
26112;BME280;13829;48.990;8.346;2022-08-01T08:58:55;100507.28;;;33.56;36.36
26112;BME280;13829;48.990;8.346;2022-08-01T09:01:23;100508.00;;;33.68;36.24
26112;BME280;13829;48.990;8.346;2022-08-01T09:03:50;100504.25;;;33.59;35.66
26112;BME280;13829;48.990;8.346;2022-08-01T09:06:17;100505.22;;;33.39;36.29
26112;BME280;13829;48.990;8.346;2022-08-01T09:08:45;100511.06;;;33.34;36.83
26112;BME280;13829;48.990;8.346;2022-08-01T09:11:13;100508.28;;;32.51;37.53
26112;BME280;13829;48.990;8.346;2022-08-01T09:13:40;100521.13;;;31.95;39.57
26112;BME280;13829;48.990;8.346;2022-08-01T09:16:07;100516.03;;;31.35;39.87
26112;BME280;13829;48.990;8.346;2022-08-01T09:18:37;100513.25;;;31.01;40.97
26112;BME280;13829;48.990;8.346;2022-08-01T09:21:12;100523.50;;;30.98;41.60
26112;BME280;13829;48.990;8.346;2022-08-01T09:23:44;100517.59;;;31.04;41.56
26112;BME280;13829;48.990;8.346;2022-08-01T09:26:17;100518.34;;;31.29;42.36
26112;BME280;13829;48.990;8.346;2022-08-01T09:28:47;100514.53;;;31.20;42.13
26112;BME280;13829;48.990;8.346;2022-08-01T09:31:18;100516.69;;;30.81;42.31
26112;BME280;13829;48.990;8.346;2022-08-01T09:33:52;100518.75;;;30.30;42.94
26112;BME280;13829;48.990;8.346;2022-08-01T09:36:19;100518.97;;;30.27;44.77
26112;BME280;13829;48.990;8.346;2022-08-01T09:38:47;100509.75;;;30.65;45.87
26112;BME280;13829;48.990;8.346;2022-08-01T09:41:17;100515.47;;;30.96;42.21
26112;BME280;13829;48.990;8.346;2022-08-01T09:43:49;100518.47;;;31.27;41.49
26112;BME280;13829;48.990;8.346;2022-08-01T09:46:16;100511.06;;;31.52;40.74
26112;BME280;13829;48.990;8.346;2022-08-01T09:48:58;100504.38;;;31.45;41.27
26112;BME280;13829;48.990;8.346;2022-08-01T09:51:31;100507.84;;;31.47;40.62
26112;BME280;13829;48.990;8.346;2022-08-01T09:53:59;100507.84;;;31.47;41.88
26112;BME280;13829;48.990;8.346;2022-08-01T09:56:36;100510.59;;;31.35;41.55
26112;BME280;13829;48.990;8.346;2022-08-01T09:59:04;100505.66;;;31.06;41.27
26112;BME280;13829;48.990;8.346;2022-08-01T10:01:47;100521.69;;;31.10;42.06
26112;BME280;13829;48.990;8.346;2022-08-01T10:04:17;100514.03;;;31.15;42.00
26112;BME280;13829;48.990;8.346;2022-08-01T10:06:47;100507.84;;;31.01;41.29
26112;BME280;13829;48.990;8.346;2022-08-01T10:09:28;100516.66;;;30.58;41.95
26112;BME280;13829;48.990;8.346;2022-08-01T10:11:59;100508.91;;;30.40;43.24
26112;BME280;13829;48.990;8.346;2022-08-01T10:14:29;100504.25;;;30.18;43.03
26112;BME280;13829;48.990;8.346;2022-08-01T10:16:59;100503.41;;;30.18;43.38
26112;BME280;13829;48.990;8.346;2022-08-01T10:19:28;100500.41;;;30.09;44.50
26112;BME280;13829;48.990;8.346;2022-08-01T10:21:56;100493.44;;;29.94;43.45
26112;BME280;13829;48.990;8.346;2022-08-01T10:24:29;100492.66;;;29.92;44.09
26112;BME280;13829;48.990;8.346;2022-08-01T10:27:03;100499.84;;;29.80;45.18
26112;BME280;13829;48.990;8.346;2022-08-01T10:29:36;100495.72;;;30.12;44.89
26112;BME280;13829;48.990;8.346;2022-08-01T10:32:05;100490.56;;;30.20;44.26
26112;BME280;13829;48.990;8.346;2022-08-01T10:34:36;100492.47;;;29.95;44.59
26112;BME280;13829;48.990;8.346;2022-08-01T10:37:03;100492.00;;;30.01;43.54
26112;BME280;13829;48.990;8.346;2022-08-01T10:39:32;100495.53;;;29.77;44.87
26112;BME280;13829;48.990;8.346;2022-08-01T10:42:01;100498.09;;;29.92;44.65
26112;BME280;13829;48.990;8.346;2022-08-01T10:44:30;100488.25;;;29.91;43.83
26112;BME280;13829;48.990;8.346;2022-08-01T10:47:05;100486.50;;;30.14;43.61
26112;BME280;13829;48.990;8.346;2022-08-01T10:49:41;100483.19;;;30.22;43.77
26112;BME280;13829;48.990;8.346;2022-08-01T10:52:15;100484.88;;;30.12;44.86
26112;BME280;13829;48.990;8.346;2022-08-01T10:54:42;100480.31;;;29.88;43.86
26112;BME280;13829;48.990;8.346;2022-08-01T10:57:11;100483.13;;;29.86;44.27
26112;BME280;13829;48.990;8.346;2022-08-01T10:59:49;100476.75;;;29.87;45.50
26112;BME280;13829;48.990;8.346;2022-08-01T11:02:29;100474.94;;;29.75;45.83
26112;BME280;13829;48.990;8.346;2022-08-01T11:05:01;100474.03;;;29.87;44.67
26112;BME280;13829;48.990;8.346;2022-08-01T11:07:46;100470.94;;;30.05;43.50
26112;BME280;13829;48.990;8.346;2022-08-01T11:10:24;100471.63;;;30.31;43.10
26112;BME280;13829;48.990;8.346;2022-08-01T11:12:53;100470.13;;;30.63;42.81
26112;BME280;13829;48.990;8.346;2022-08-01T11:15:23;100474.47;;;30.77;43.44
26112;BME280;13829;48.990;8.346;2022-08-01T11:17:55;100466.09;;;30.68;43.23
26112;BME280;13829;48.990;8.346;2022-08-01T11:20:24;100461.56;;;30.45;42.30
26112;BME280;13829;48.990;8.346;2022-08-01T11:23:26;100461.81;;;30.41;42.36
26112;BME280;13829;48.990;8.346;2022-08-01T11:26:15;100461.81;;;30.41;42.76
26112;BME280;13829;48.990;8.346;2022-08-01T11:29:10;100457.09;;;30.32;43.55
26112;BME280;13829;48.990;8.346;2022-08-01T11:31:35;100461.41;;;29.99;43.78
26112;BME280;13829;48.990;8.346;2022-08-01T11:34:02;100466.75;;;29.64;44.96
26112;BME280;13829;48.990;8.346;2022-08-01T11:36:29;100454.03;;;29.77;44.27
26112;BME280;13829;48.990;8.346;2022-08-01T11:39:18;100455.31;;;29.71;43.20
26112;BME280;13829;48.990;8.346;2022-08-01T11:41:47;100439.78;;;29.62;44.10
26112;BME280;13829;48.990;8.346;2022-08-01T11:44:18;100453.78;;;29.56;44.19
26112;BME280;13829;48.990;8.346;2022-08-01T11:47:13;100445.69;;;29.43;44.61
26112;BME280;13829;48.990;8.346;2022-08-01T11:49:48;100448.56;;;29.53;44.95
26112;BME280;13829;48.990;8.346;2022-08-01T11:52:27;100445.41;;;29.59;44.08
26112;BME280;13829;48.990;8.346;2022-08-01T11:54:56;100437.56;;;29.67;43.93
26112;BME280;13829;48.990;8.346;2022-08-01T11:57:25;100435.66;;;29.81;43.99
26112;BME280;13829;48.990;8.346;2022-08-01T11:59:58;100434.03;;;29.78;45.24
26112;BME280;13829;48.990;8.346;2022-08-01T12:02:28;100435.84;;;29.66;43.63
26112;BME280;13829;48.990;8.346;2022-08-01T12:04:58;100428.34;;;29.70;43.97
26112;BME280;13829;48.990;8.346;2022-08-01T12:07:28;100430.47;;;29.77;43.65
26112;BME280;13829;48.990;8.346;2022-08-01T12:10:02;100431.13;;;29.81;44.57
26112;BME280;13829;48.990;8.346;2022-08-01T12:12:31;100429.13;;;29.96;43.22
26112;BME280;13829;48.990;8.346;2022-08-01T12:15:00;100426.06;;;29.88;44.03
26112;BME280;13829;48.990;8.346;2022-08-01T12:17:35;100425.22;;;29.87;44.21
26112;BME280;13829;48.990;8.346;2022-08-01T12:20:06;100423.06;;;29.92;43.25
26112;BME280;13829;48.990;8.346;2022-08-01T12:22:34;100422.81;;;29.96;43.57
26112;BME280;13829;48.990;8.346;2022-08-01T12:25:09;100424.66;;;29.71;42.79
26112;BME280;13829;48.990;8.346;2022-08-01T12:27:39;100415.72;;;29.57;44.05
26112;BME280;13829;48.990;8.346;2022-08-01T12:30:09;100412.28;;;29.42;44.67
26112;BME280;13829;48.990;8.346;2022-08-01T12:32:40;100409.25;;;29.47;43.72
26112;BME280;13829;48.990;8.346;2022-08-01T12:35:09;100413.56;;;29.50;42.88
26112;BME280;13829;48.990;8.346;2022-08-01T12:37:38;100406.34;;;29.37;43.71
26112;BME280;13829;48.990;8.346;2022-08-01T12:40:14;100411.78;;;29.37;44.03
26112;BME280;13829;48.990;8.346;2022-08-01T12:42:44;100409.31;;;29.34;43.54
26112;BME280;13829;48.990;8.346;2022-08-01T12:45:16;100410.63;;;29.16;44.21
26112;BME280;13829;48.990;8.346;2022-08-01T12:47:46;100412.66;;;29.25;44.69
26112;BME280;13829;48.990;8.346;2022-08-01T12:50:17;100405.38;;;29.38;44.75
26112;BME280;13829;48.990;8.346;2022-08-01T12:52:45;100405.00;;;29.56;43.72
26112;BME280;13829;48.990;8.346;2022-08-01T12:55:15;100394.34;;;29.66;41.34
26112;BME280;13829;48.990;8.346;2022-08-01T12:57:46;100396.47;;;29.73;43.15
26112;BME280;13829;48.990;8.346;2022-08-01T13:00:24;100403.38;;;29.77;42.21
26112;BME280;13829;48.990;8.346;2022-08-01T13:03:04;100402.38;;;29.78;42.38
26112;BME280;13829;48.990;8.346;2022-08-01T13:05:42;100397.94;;;29.77;43.04
26112;BME280;13829;48.990;8.346;2022-08-01T13:08:11;100397.31;;;29.74;42.63
26112;BME280;13829;48.990;8.346;2022-08-01T13:10:39;100403.31;;;29.66;42.20